Time;durP1;ratioP1;P1;durP2;ratioP2;P2;SDS_P1;SDS_P2;PMS_P1;PMS_P2;Temp;Humidity;BMP_temperature;BMP_pressure;BME280_temperature;BME280_humidity;BME280_pressure;Samples;Min_cycle;Max_cycle;Signal;HPM_P1;HPM_P2
2023/07/02 00:00:29;;;;;;;;;;;;;;;;;;5054042;28;19953;-71
2023/07/02 00:02:55;;;;;;;;;;;;;;;;;;5054224;28;20029;-71
2023/07/02 00:05:21;;;;;;;;;;;;;;;;;;5053979;28;19954;-71
2023/07/02 00:07:47;;;;;;;;;;;;;;;;;;5054513;28;20480;-71
2023/07/02 00:10:13;;;;;;;;;;;;;;;;;;5053894;28;19959;-70
2023/07/02 00:12:39;;;;;;;;;;;;;;;;;;5054394;28;20295;-71
2023/07/02 00:15:05;;;;;;;;;;;;;;;;;;5054097;28;20042;-71
2023/07/02 00:17:31;;;;;;;;;;;;;;;;;;5053795;28;19960;-71
2023/07/02 00:20:02;;;;;;;;;;;;;;;;;;5054022;28;19960;-72
2023/07/02 00:22:30;;;;;;;;;;;;;;;;;;5053658;28;19996;-71
2023/07/02 00:24:56;;;;;;;;;;;;;;;;;;5054174;28;19978;-71
2023/07/02 00:27:22;;;;;;;;;;;;;;;;;;5053647;28;20318;-70
2023/07/02 00:29:47;;;;;;;;;;;;;;;;;;5053908;28;20006;-71
2023/07/02 00:32:13;;;;;;;;;;;;;;;;;;5053586;28;20443;-72
2023/07/02 00:34:39;;;;;;;;;;;;;;;;;;5053571;28;19970;-71
2023/07/02 00:37:05;;;;;;;;;;;;;;;;;;5053581;28;19990;-71
2023/07/02 00:39:31;;;;;;;;;;;;;;;;;;5053838;28;19976;-72
2023/07/02 00:41:57;;;;;;;;;;;;;;;;;;5053779;28;19978;-71
2023/07/02 00:44:23;;;;;;;;;;;;;;;;;;5054014;28;20407;-71
2023/07/02 00:46:49;;;;;;;;;;;;;;;;;;5053782;28;20037;-71
2023/07/02 00:49:15;;;;;;;;;;;;;;;;;;5053487;28;20406;-71
2023/07/02 00:51:41;;;;;;;;;;;;;;;;;;5053740;28;19955;-71
2023/07/02 00:54:08;;;;;;;;;;;;;;;;;;5053438;28;20007;-71
2023/07/02 00:56:33;;;;;;;;;;;;;;;;;;5053664;28;19969;-71
2023/07/02 00:59:00;;;;;;;;;;;;;;;;;;5053348;28;19963;-71
2023/07/02 01:01:27;;;;;;;;;;;;;;;;;;5053650;28;19955;-71
2023/07/02 01:03:53;;;;;;;;;;;;;;;;;;5053311;28;20396;-71
2023/07/02 01:06:20;;;;;;;;;;;;;;;;;;5052005;28;19957;-71
2023/07/02 01:08:46;;;;;;;;;;;;;;;;;;5053869;28;20023;-71
2023/07/02 01:11:12;;;;;;;;;;;;;;;;;;5053242;28;20322;-71
2023/07/02 01:13:37;;;;;;;;;;;;;;;;;;5053266;28;19990;-71
2023/07/02 01:16:03;;;;;;;;;;;;;;;;;;5053464;28;19972;-71
2023/07/02 01:18:30;;;;;;;;;;;;;;;;;;5053195;28;20008;-71
2023/07/02 01:20:57;;;;;;;;;;;;;;;;;;5051700;28;19993;-71
2023/07/02 01:23:23;;;;;;;;;;;;;;;;;;5053076;28;20020;-71
2023/07/02 01:25:49;;;;;;;;;;;;;;;;;;5053176;28;20448;-70
2023/07/02 01:28:15;;;;;;;;;;;;;;;;;;5053101;28;19959;-72
2023/07/02 01:30:41;;;;;;;;;;;;;;;;;;5053397;28;20360;-71
2023/07/02 01:33:07;;;;;;;;;;;;;;;;;;5053365;28;20000;-71
2023/07/02 01:35:33;;;;;;;;;;;;;;;;;;5053250;28;19976;-72
2023/07/02 01:37:59;;;;;;;;;;;;;;;;;;5056913;28;20434;-71
2023/07/02 01:40:24;;;;;;;;;;;;;;;;;;5057793;28;19955;-71
2023/07/02 01:42:50;;;;;;;;;;;;;;;;;;5056351;28;20500;-71
2023/07/02 01:45:16;;;;;;;;;;;;;;;;;;5056566;28;19953;-71
2023/07/02 01:47:42;;;;;;;;;;;;;;;;;;5056540;28;20324;-72
2023/07/02 01:50:08;;;;;;;;;;;;;;;;;;5056505;28;19958;-71
2023/07/02 01:52:34;;;;;;;;;;;;;;;;;;5056711;28;20011;-71
2023/07/02 01:55:00;;;;;;;;;;;;;;;;;;5056454;28;20364;-70
2023/07/02 01:57:26;;;;;;;;;;;;;;;;;;5055157;28;20041;-70
2023/07/02 01:59:52;;;;;;;;;;;;;;;;;;5056330;28;19961;-72
2023/07/02 02:02:17;;;;;;;;;;;;;;;;;;5056495;28;19982;-71
2023/07/02 02:04:43;;;;;;;;;;;;;;;;;;5056523;28;19959;-72
2023/07/02 02:07:09;;;;;;;;;;;;;;;;;;5056173;28;19994;-71
2023/07/02 02:09:36;;;;;;;;;;;;;;;;;;5056675;28;20383;-71
2023/07/02 02:12:02;;;;;;;;;;;;;;;;;;5056137;28;19954;-72
2023/07/02 02:14:28;;;;;;;;;;;;;;;;;;5056038;28;19955;-70
2023/07/02 02:16:54;;;;;;;;;;;;;;;;;;5055964;28;20111;-71
2023/07/02 02:19:20;;;;;;;;;;;;;;;;;;5055948;28;19997;-71
2023/07/02 02:21:46;;;;;;;;;;;;;;;;;;5056093;28;19986;-71
2023/07/02 02:24:11;;;;;;;;;;;;;;;;;;5055829;28;19952;-71
2023/07/02 02:26:37;;;;;;;;;;;;;;;;;;5056339;28;19962;-71
2023/07/02 02:29:03;;;;;;;;;;;;;;;;;;5055758;28;19966;-72
2023/07/02 02:31:30;;;;;;;;;;;;;;;;;;5055734;28;19954;-70
2023/07/02 02:33:56;;;;;;;;;;;;;;;;;;5056159;28;20366;-72
2023/07/02 02:36:22;;;;;;;;;;;;;;;;;;5055641;28;20011;-71
2023/07/02 02:38:48;;;;;;;;;;;;;;;;;;5055683;28;19955;-71
2023/07/02 02:41:14;;;;;;;;;;;;;;;;;;5056657;28;20464;-71
2023/07/02 02:43:40;;;;;;;;;;;;;;;;;;5055303;28;20438;-72
2023/07/02 02:46:06;;;;;;;;;;;;;;;;;;5056042;28;20403;-70
2023/07/02 02:48:31;;;;;;;;;;;;;;;;;;5054266;28;20030;-71
2023/07/02 02:50:59;;;;;;;;;;;;;;;;;;5055923;28;20388;-71
2023/07/02 02:53:24;;;;;;;;;;;;;;;;;;5055599;28;19955;-71
2023/07/02 02:55:50;;;;;;;;;;;;;;;;;;5055257;28;19952;-72
2023/07/02 02:58:16;;;;;;;;;;;;;;;;;;5055224;28;19962;-72
2023/07/02 03:00:45;;;;;;;;;;;;;;;;;;5055431;28;19954;-71
2023/07/02 03:03:11;;;;;;;;;;;;;;;;;;5055058;28;19983;-72
2023/07/02 03:05:37;;;;;;;;;;;;;;;;;;5055343;28;19954;-71
2023/07/02 03:08:03;;;;;;;;;;;;;;;;;;5055286;28;19978;-70
2023/07/02 03:10:29;;;;;;;;;;;;;;;;;;5055539;28;20041;-71
2023/07/02 03:12:55;;;;;;;;;;;;;;;;;;5054948;28;19958;-72
2023/07/02 03:15:21;;;;;;;;;;;;;;;;;;5054891;28;19961;-71
2023/07/02 03:17:47;;;;;;;;;;;;;;;;;;5055385;28;20008;-71
2023/07/02 03:20:12;;;;;;;;;;;;;;;;;;5054816;28;19980;-71
2023/07/02 03:22:38;;;;;;;;;;;;;;;;;;5054979;28;19981;-70
2023/07/02 03:25:04;;;;;;;;;;;;;;;;;;5055042;28;19960;-70
2023/07/02 03:27:30;;;;;;;;;;;;;;;;;;5054696;28;19955;-71
2023/07/02 03:29:56;;;;;;;;;;;;;;;;;;5054955;28;19954;-71
2023/07/02 03:32:22;;;;;;;;;;;;;;;;;;5054610;28;20322;-71
2023/07/02 03:34:48;;;;;;;;;;;;;;;;;;5054765;28;20060;-72
2023/07/02 03:37:14;;;;;;;;;;;;;;;;;;5054479;28;20328;-71
2023/07/02 03:39:39;;;;;;;;;;;;;;;;;;5054468;28;20039;-71
2023/07/02 03:42:05;;;;;;;;;;;;;;;;;;5054919;28;19981;-71
2023/07/02 03:44:31;;;;;;;;;;;;;;;;;;5055032;28;20436;-70
2023/07/02 03:46:57;;;;;;;;;;;;;;;;;;5054330;28;19955;-72
2023/07/02 03:49:23;;;;;;;;;;;;;;;;;;5054260;28;19959;-71
2023/07/02 03:51:49;;;;;;;;;;;;;;;;;;5054482;28;19980;-72
2023/07/02 03:54:15;;;;;;;;;;;;;;;;;;5054410;28;19955;-71
2023/07/02 03:56:41;;;;;;;;;;;;;;;;;;5054132;28;20004;-71
2023/07/02 03:59:07;;;;;;;;;;;;;;;;;;5054018;28;19953;-71
2023/07/02 04:01:32;;;;;;;;;;;;;;;;;;5054026;28;19953;-71
2023/07/02 04:03:58;;;;;;;;;;;;;;;;;;5052682;28;19990;-72
2023/07/02 04:06:24;;;;;;;;;;;;;;;;;;5054517;28;19960;-72
2023/07/02 04:08:50;;;;;;;;;;;;;;;;;;5053980;28;19961;-71
2023/07/02 04:11:16;;;;;;;;;;;;;;;;;;5054202;28;20003;-71
2023/07/02 04:13:42;;;;;;;;;;;;;;;;;;5053853;28;20496;-71
2023/07/02 04:16:08;;;;;;;;;;;;;;;;;;5052583;28;19957;-71
2023/07/02 04:18:34;;;;;;;;;;;;;;;;;;5054077;28;19954;-71
2023/07/02 04:21:00;;;;;;;;;;;;;;;;;;5053811;28;19954;-71
2023/07/02 04:23:26;;;;;;;;;;;;;;;;;;5054227;28;20417;-71
2023/07/02 04:25:51;;;;;;;;;;;;;;;;;;5054036;28;19958;-71
2023/07/02 04:28:18;;;;;;;;;;;;;;;;;;5054286;28;20091;-71
2023/07/02 04:30:45;;;;;;;;;;;;;;;;;;5053638;28;19951;-71
2023/07/02 04:33:13;;;;;;;;;;;;;;;;;;5054196;28;20398;-71
2023/07/02 04:35:39;;;;;;;;;;;;;;;;;;5053544;28;19970;-71
2023/07/02 04:38:06;;;;;;;;;;;;;;;;;;5053624;28;19952;-71
2023/07/02 04:40:32;;;;;;;;;;;;;;;;;;5053601;28;19958;-71
2023/07/02 04:42:58;;;;;;;;;;;;;;;;;;5053949;28;19990;-72
2023/07/02 04:45:23;;;;;;;;;;;;;;;;;;5054081;28;19958;-71
2023/07/02 04:47:49;;;;;;;;;;;;;;;;;;5053481;28;19958;-71
2023/07/02 04:50:16;;;;;;;;;;;;;;;;;;5053468;28;20052;-71
2023/07/02 04:52:42;;;;;;;;;;;;;;;;;;5051982;28;20380;-71
2023/07/02 04:55:08;;;;;;;;;;;;;;;;;;5053504;28;19961;-71
2023/07/02 04:57:34;;;;;;;;;;;;;;;;;;5053718;28;19955;-71
2023/07/02 05:00:00;;;;;;;;;;;;;;;;;;5053402;28;19952;-72
2023/07/02 05:02:26;;;;;;;;;;;;;;;;;;5053364;28;20432;-71
2023/07/02 05:04:51;;;;;;;;;;;;;;;;;;5053371;28;19959;-70
2023/07/02 05:07:17;;;;;;;;;;;;;;;;;;5053860;28;20434;-71
2023/07/02 05:09:43;;;;;;;;;;;;;;;;;;5053597;28;20006;-71
2023/07/02 05:12:09;;;;;;;;;;;;;;;;;;5055729;28;20300;-72
2023/07/02 05:14:35;;;;;;;;;;;;;;;;;;5057180;28;19961;-72
2023/07/02 05:17:01;;;;;;;;;;;;;;;;;;5057132;28;19983;-71
2023/07/02 05:19:27;;;;;;;;;;;;;;;;;;5057437;28;20040;-71
2023/07/02 05:21:53;;;;;;;;;;;;;;;;;;5055551;28;19959;-70
2023/07/02 05:24:19;;;;;;;;;;;;;;;;;;5057083;28;19962;-71
2023/07/02 05:26:45;;;;;;;;;;;;;;;;;;5057524;28;19953;-71
2023/07/02 05:29:11;;;;;;;;;;;;;;;;;;5056954;28;20007;-71
2023/07/02 05:31:37;;;;;;;;;;;;;;;;;;5056897;28;19957;-71
2023/07/02 05:34:02;;;;;;;;;;;;;;;;;;5057030;28;19954;-71
2023/07/02 05:36:28;;;;;;;;;;;;;;;;;;5057020;28;19965;-71
2023/07/02 05:38:54;;;;;;;;;;;;;;;;;;5057299;28;19952;-71
2023/07/02 05:41:20;;;;;;;;;;;;;;;;;;5057163;28;20419;-70
2023/07/02 05:43:46;;;;;;;;;;;;;;;;;;5056206;28;19990;-70
2023/07/02 05:46:13;;;;;;;;;;;;;;;;;;5056892;28;19988;-72
2023/07/02 05:48:39;;;;;;;;;;;;;;;;;;5056547;28;19959;-71
2023/07/02 05:51:05;;;;;;;;;;;;;;;;;;5056795;28;19952;-71
2023/07/02 05:53:31;;;;;;;;;;;;;;;;;;5056419;28;20398;-71
2023/07/02 05:55:57;;;;;;;;;;;;;;;;;;5056417;28;19953;-71
2023/07/02 05:58:23;;;;;;;;;;;;;;;;;;5056398;28;19962;-71
2023/07/02 06:00:49;;;;;;;;;;;;;;;;;;5056611;28;19960;-71
2023/07/02 06:03:19;;;;;;;;;;;;;;;;;;5056161;28;19980;-71
2023/07/02 06:05:44;;;;;;;;;;;;;;;;;;5056236;28;20006;-71
2023/07/02 06:08:10;;;;;;;;;;;;;;;;;;5056498;28;19998;-71
2023/07/02 06:10:37;;;;;;;;;;;;;;;;;;5056196;28;20395;-71
2023/07/02 06:13:03;;;;;;;;;;;;;;;;;;5054595;28;19961;-71
2023/07/02 06:15:29;;;;;;;;;;;;;;;;;;5056073;28;20434;-70
2023/07/02 06:17:55;;;;;;;;;;;;;;;;;;5056042;28;19959;-70
2023/07/02 06:20:21;;;;;;;;;;;;;;;;;;5055989;28;19952;-72
2023/07/02 06:22:47;;;;;;;;;;;;;;;;;;5055613;28;20015;-71
2023/07/02 06:25:12;;;;;;;;;;;;;;;;;;5056141;28;19953;-71
2023/07/02 06:27:38;;;;;;;;;;;;;;;;;;5054567;28;19960;-72
2023/07/02 06:30:04;;;;;;;;;;;;;;;;;;5055855;28;20003;-72
2023/07/02 06:32:30;;;;;;;;;;;;;;;;;;5055779;28;20322;-72
2023/07/02 06:34:56;;;;;;;;;;;;;;;;;;5055656;28;20001;-72
2023/07/02 06:37:22;;;;;;;;;;;;;;;;;;5056259;28;20342;-72
2023/07/02 06:39:48;;;;;;;;;;;;;;;;;;5055605;28;20303;-71
2023/07/02 06:42:14;;;;;;;;;;;;;;;;;;5055778;28;20075;-73
2023/07/02 06:44:39;;;;;;;;;;;;;;;;;;5055836;28;19992;-72
2023/07/02 06:47:05;;;;;;;;;;;;;;;;;;5055770;28;20420;-72
2023/07/02 06:49:31;;;;;;;;;;;;;;;;;;5055979;28;19954;-72
2023/07/02 06:51:57;;;;;;;;;;;;;;;;;;5055435;28;19954;-72
2023/07/02 06:54:23;;;;;;;;;;;;;;;;;;5055337;28;19987;-72
2023/07/02 06:56:49;;;;;;;;;;;;;;;;;;5055531;28;20065;-72
2023/07/02 06:59:15;;;;;;;;;;;;;;;;;;5055252;28;19960;-72
2023/07/02 07:01:41;;;;;;;;;;;;;;;;;;5055528;28;19950;-72
2023/07/02 07:04:06;;;;;;;;;;;;;;;;;;5055362;28;19978;-72
2023/07/02 07:06:33;;;;;;;;;;;;;;;;;;5055102;28;19953;-72
2023/07/02 07:08:59;;;;;;;;;;;;;;;;;;5055620;28;19962;-72
2023/07/02 07:11:25;;;;;;;;;;;;;;;;;;5054977;28;20467;-73
2023/07/02 07:13:51;;;;;;;;;;;;;;;;;;5055253;28;19960;-72
2023/07/02 07:16:17;;;;;;;;;;;;;;;;;;5054897;28;20440;-72
2023/07/02 07:18:43;;;;;;;;;;;;;;;;;;5054889;28;20052;-72
2023/07/02 07:21:09;;;;;;;;;;;;;;;;;;5055379;28;19953;-73
2023/07/02 07:23:34;;;;;;;;;;;;;;;;;;5055004;28;20007;-70
2023/07/02 07:26:00;;;;;;;;;;;;;;;;;;5054964;28;19953;-70
2023/07/02 07:28:26;;;;;;;;;;;;;;;;;;5054648;28;19954;-69
2023/07/02 07:30:52;;;;;;;;;;;;;;;;;;5054884;28;19996;-70
2023/07/02 07:33:18;;;;;;;;;;;;;;;;;;5054300;28;19955;-69
2023/07/02 07:35:44;;;;;;;;;;;;;;;;;;5054424;28;20036;-70
2023/07/02 07:38:10;;;;;;;;;;;;;;;;;;5054507;28;19995;-70
2023/07/02 07:40:36;;;;;;;;;;;;;;;;;;5055042;28;20395;-70
2023/07/02 07:43:01;;;;;;;;;;;;;;;;;;5054826;28;19990;-69
2023/07/02 07:45:27;;;;;;;;;;;;;;;;;;5054425;28;20405;-69
2023/07/02 07:47:53;;;;;;;;;;;;;;;;;;5054306;28;19967;-69
2023/07/02 07:50:21;;;;;;;;;;;;;;;;;;5054249;28;20429;-69
2023/07/02 07:52:46;;;;;;;;;;;;;;;;;;5054788;28;19954;-70
2023/07/02 07:55:13;;;;;;;;;;;;;;;;;;5054169;28;20325;-70
2023/07/02 07:57:39;;;;;;;;;;;;;;;;;;5054162;28;19979;-71
2023/07/02 08:00:07;;;;;;;;;;;;;;;;;;5054143;28;19955;-70
2023/07/02 08:02:33;;;;;;;;;;;;;;;;;;5054295;28;19978;-69
2023/07/02 08:04:59;;;;;;;;;;;;;;;;;;5054048;28;20017;-70
2023/07/02 08:07:25;;;;;;;;;;;;;;;;;;5054300;28;19978;-70
2023/07/02 08:09:51;;;;;;;;;;;;;;;;;;5053925;28;19960;-70
2023/07/02 08:12:17;;;;;;;;;;;;;;;;;;5053917;28;19952;-68
2023/07/02 08:14:43;;;;;;;;;;;;;;;;;;5054079;28;20002;-69
2023/07/02 08:17:09;;;;;;;;;;;;;;;;;;5052491;28;19965;-70
2023/07/02 08:19:34;;;;;;;;;;;;;;;;;;5054439;28;20004;-68
2023/07/02 08:22:00;;;;;;;;;;;;;;;;;;5053732;28;19955;-68
2023/07/02 08:24:26;;;;;;;;;;;;;;;;;;5054052;28;20104;-70
2023/07/02 08:26:52;;;;;;;;;;;;;;;;;;5053709;28;19961;-69
2023/07/02 08:29:18;;;;;;;;;;;;;;;;;;5053968;28;19952;-70
2023/07/02 08:31:44;;;;;;;;;;;;;;;;;;5053933;28;20325;-70
2023/07/02 08:34:10;;;;;;;;;;;;;;;;;;5053593;28;19972;-70
2023/07/02 08:36:36;;;;;;;;;;;;;;;;;;5053897;28;19957;-70
2023/07/02 08:39:03;;;;;;;;;;;;;;;;;;5053592;28;19954;-71
2023/07/02 08:41:29;;;;;;;;;;;;;;;;;;5054106;28;19981;-70
2023/07/02 08:43:55;;;;;;;;;;;;;;;;;;5053338;28;19997;-70
2023/07/02 08:46:21;;;;;;;;;;;;;;;;;;5056509;28;20057;-69
2023/07/02 08:48:47;;;;;;;;;;;;;;;;;;5057700;28;20469;-69
2023/07/02 08:51:12;;;;;;;;;;;;;;;;;;5058215;28;20414;-70
2023/07/02 08:53:38;;;;;;;;;;;;;;;;;;5057861;28;20041;-69
2023/07/02 08:56:04;;;;;;;;;;;;;;;;;;5057532;28;20329;-70
2023/07/02 08:58:30;;;;;;;;;;;;;;;;;;5058107;28;19955;-68
2023/07/02 09:00:56;;;;;;;;;;;;;;;;;;5057459;28;19954;-69
2023/07/02 09:03:22;;;;;;;;;;;;;;;;;;5057609;28;19975;-73
2023/07/02 09:05:48;;;;;;;;;;;;;;;;;;5057393;28;20008;-73
2023/07/02 09:08:14;;;;;;;;;;;;;;;;;;5057323;28;19982;-72
2023/07/02 09:10:40;;;;;;;;;;;;;;;;;;5057296;28;20053;-72
2023/07/02 09:13:05;;;;;;;;;;;;;;;;;;5057231;28;19960;-72
2023/07/02 09:15:31;;;;;;;;;;;;;;;;;;5057241;28;19954;-71
2023/07/02 09:17:57;;;;;;;;;;;;;;;;;;5057744;28;19954;-73
2023/07/02 09:20:23;;;;;;;;;;;;;;;;;;5057144;28;19993;-72
2023/07/02 09:22:49;;;;;;;;;;;;;;;;;;5057024;28;19973;-72
2023/07/02 09:25:15;;;;;;;;;;;;;;;;;;5057335;28;19991;-72
2023/07/02 09:27:41;;;;;;;;;;;;;;;;;;5056996;28;20006;-71
2023/07/02 09:30:08;;;;;;;;;;;;;;;;;;5057266;28;20063;-71
2023/07/02 09:32:34;;;;;;;;;;;;;;;;;;5055390;28;20398;-71
2023/07/02 09:35:00;;;;;;;;;;;;;;;;;;5056848;28;20051;-72
2023/07/02 09:37:26;;;;;;;;;;;;;;;;;;5056820;28;19954;-72
2023/07/02 09:39:54;;;;;;;;;;;;;;;;;;5057072;28;20004;-72
2023/07/02 09:42:20;;;;;;;;;;;;;;;;;;5057253;28;20033;-72
2023/07/02 09:44:46;;;;;;;;;;;;;;;;;;5057024;28;19982;-72
2023/07/02 09:47:12;;;;;;;;;;;;;;;;;;5056618;28;20429;-71
2023/07/02 09:49:38;;;;;;;;;;;;;;;;;;5056561;28;19955;-72
2023/07/02 09:52:03;;;;;;;;;;;;;;;;;;5056834;28;20022;-73
2023/07/02 09:54:30;;;;;;;;;;;;;;;;;;5056473;28;19954;-71
2023/07/02 09:56:56;;;;;;;;;;;;;;;;;;5056033;28;19954;-72
2023/07/02 09:59:22;;;;;;;;;;;;;;;;;;5056420;28;20050;-72
2023/07/02 10:01:48;;;;;;;;;;;;;;;;;;5056360;28;19997;-71
2023/07/02 10:04:14;;;;;;;;;;;;;;;;;;5056193;28;19983;-72
2023/07/02 10:06:40;;;;;;;;;;;;;;;;;;5056206;28;20089;-72
2023/07/02 10:09:06;;;;;;;;;;;;;;;;;;5056495;28;20049;-72
2023/07/02 10:11:31;;;;;;;;;;;;;;;;;;5056158;28;19955;-72
2023/07/02 10:13:58;;;;;;;;;;;;;;;;;;5056122;28;19962;-72
2023/07/02 10:16:26;;;;;;;;;;;;;;;;;;5056700;28;19959;-70
2023/07/02 10:18:52;;;;;;;;;;;;;;;;;;5054800;28;19957;-72
2023/07/02 10:21:18;;;;;;;;;;;;;;;;;;5056022;28;19977;-72
2023/07/02 10:23:44;;;;;;;;;;;;;;;;;;5055920;28;20001;-72
2023/07/02 10:26:10;;;;;;;;;;;;;;;;;;5056218;28;19955;-72
2023/07/02 10:28:36;;;;;;;;;;;;;;;;;;5056132;28;19961;-72
2023/07/02 10:31:02;;;;;;;;;;;;;;;;;;5055802;28;20029;-71
2023/07/02 10:33:28;;;;;;;;;;;;;;;;;;5055800;28;19954;-72
2023/07/02 10:35:54;;;;;;;;;;;;;;;;;;5055719;28;19974;-72
2023/07/02 10:38:19;;;;;;;;;;;;;;;;;;5055978;28;19961;-72
2023/07/02 10:40:45;;;;;;;;;;;;;;;;;;5055891;28;19954;-72
2023/07/02 10:43:11;;;;;;;;;;;;;;;;;;5055839;28;19991;-72
2023/07/02 10:45:37;;;;;;;;;;;;;;;;;;5055500;28;20041;-73
2023/07/02 10:48:04;;;;;;;;;;;;;;;;;;5055771;28;19962;-72
2023/07/02 10:50:29;;;;;;;;;;;;;;;;;;5055423;28;19955;-70
2023/07/02 10:52:55;;;;;;;;;;;;;;;;;;5055380;28;19961;-72
2023/07/02 10:55:21;;;;;;;;;;;;;;;;;;5055673;28;20366;-72
2023/07/02 10:57:47;;;;;;;;;;;;;;;;;;5055292;28;19981;-72
2023/07/02 11:00:14;;;;;;;;;;;;;;;;;;5055541;28;20015;-72
2023/07/02 11:02:40;;;;;;;;;;;;;;;;;;5055250;28;19972;-72
2023/07/02 11:05:06;;;;;;;;;;;;;;;;;;5055395;28;20045;-71
2023/07/02 11:07:32;;;;;;;;;;;;;;;;;;5055140;28;19959;-72
2023/07/02 11:09:58;;;;;;;;;;;;;;;;;;5054349;28;19959;-72
2023/07/02 11:12:24;;;;;;;;;;;;;;;;;;5054985;28;19962;-72
2023/07/02 11:14:50;;;;;;;;;;;;;;;;;;5054966;28;19954;-72
2023/07/02 11:17:15;;;;;;;;;;;;;;;;;;5055216;28;19963;-72
2023/07/02 11:19:41;;;;;;;;;;;;;;;;;;5055133;28;19955;-72
2023/07/02 11:22:07;;;;;;;;;;;;;;;;;;5055227;28;19993;-72
2023/07/02 11:24:33;;;;;;;;;;;;;;;;;;5054781;28;19997;-72
2023/07/02 11:26:59;;;;;;;;;;;;;;;;;;5054758;28;19965;-72
2023/07/02 11:29:25;;;;;;;;;;;;;;;;;;5055279;28;19955;-72
2023/07/02 11:31:51;;;;;;;;;;;;;;;;;;5053375;28;20008;-71
2023/07/02 11:34:17;;;;;;;;;;;;;;;;;;5054571;28;20414;-71
2023/07/02 11:36:43;;;;;;;;;;;;;;;;;;5055091;28;20346;-72
2023/07/02 11:39:09;;;;;;;;;;;;;;;;;;5054840;28;19994;-72
2023/07/02 11:41:34;;;;;;;;;;;;;;;;;;5054507;28;20371;-72
2023/07/02 11:44:00;;;;;;;;;;;;;;;;;;5054176;28;19990;-72
2023/07/02 11:46:26;;;;;;;;;;;;;;;;;;5054365;28;19954;-72
2023/07/02 11:48:52;;;;;;;;;;;;;;;;;;5054873;28;20319;-72
2023/07/02 11:51:18;;;;;;;;;;;;;;;;;;5054522;28;19956;-71
2023/07/02 11:53:44;;;;;;;;;;;;;;;;;;5054244;28;20442;-72
2023/07/02 11:56:10;;;;;;;;;;;;;;;;;;5054201;28;19954;-72
2023/07/02 11:58:36;;;;;;;;;;;;;;;;;;5054763;28;20334;-71
2023/07/02 12:01:02;;;;;;;;;;;;;;;;;;5054158;28;19955;-72
2023/07/02 12:03:27;;;;;;;;;;;;;;;;;;5054075;28;19974;-72
2023/07/02 12:05:53;;;;;;;;;;;;;;;;;;5054539;28;20307;-71
2023/07/02 12:08:19;;;;;;;;;;;;;;;;;;5053892;28;20415;-71
2023/07/02 12:10:45;;;;;;;;;;;;;;;;;;5054135;28;20004;-71
2023/07/02 12:13:11;;;;;;;;;;;;;;;;;;5053950;28;20000;-72
2023/07/02 12:15:37;;;;;;;;;;;;;;;;;;5054212;28;20296;-72
2023/07/02 12:18:03;;;;;;;;;;;;;;;;;;5053858;28;20008;-72
2023/07/02 12:20:29;;;;;;;;;;;;;;;;;;5053537;28;19962;-72
2023/07/02 12:22:55;;;;;;;;;;;;;;;;;;5053732;28;20014;-73
2023/07/02 12:25:21;;;;;;;;;;;;;;;;;;5054069;28;19955;-72
2023/07/02 12:27:47;;;;;;;;;;;;;;;;;;5053990;28;19954;-72
2023/07/02 12:30:17;;;;;;;;;;;;;;;;;;5053632;28;19963;-71
2023/07/02 12:32:43;;;;;;;;;;;;;;;;;;5053678;28;19955;-72
2023/07/02 12:35:08;;;;;;;;;;;;;;;;;;5053489;28;20432;-72
2023/07/02 12:37:34;;;;;;;;;;;;;;;;;;5054031;28;19962;-71
2023/07/02 12:40:01;;;;;;;;;;;;;;;;;;5053573;28;19960;-71
2023/07/02 12:42:27;;;;;;;;;;;;;;;;;;5054092;28;19991;-71
2023/07/02 12:44:52;;;;;;;;;;;;;;;;;;5053849;28;19956;-72
2023/07/02 12:47:18;;;;;;;;;;;;;;;;;;5053555;28;19955;-71
2023/07/02 12:49:44;;;;;;;;;;;;;;;;;;5052205;28;20427;-72
2023/07/02 12:52:10;;;;;;;;;;;;;;;;;;5053576;28;19955;-72
2023/07/02 12:54:36;;;;;;;;;;;;;;;;;;5053461;28;20134;-71
2023/07/02 12:57:02;;;;;;;;;;;;;;;;;;5053451;28;20003;-71
2023/07/02 12:59:28;;;;;;;;;;;;;;;;;;5053708;28;19977;-72
2023/07/02 13:01:54;;;;;;;;;;;;;;;;;;5053365;28;19966;-73
2023/07/02 13:04:20;;;;;;;;;;;;;;;;;;5053620;28;20040;-72
2023/07/02 13:06:46;;;;;;;;;;;;;;;;;;5053602;28;19956;-72
2023/07/02 13:09:12;;;;;;;;;;;;;;;;;;5053865;28;19956;-72
2023/07/02 13:11:38;;;;;;;;;;;;;;;;;;5053330;28;20355;-72
2023/07/02 13:14:04;;;;;;;;;;;;;;;;;;5053316;28;20080;-71
2023/07/02 13:16:30;;;;;;;;;;;;;;;;;;5053579;28;19962;-72
2023/07/02 13:18:56;;;;;;;;;;;;;;;;;;5053238;28;20362;-73
2023/07/02 13:21:22;;;;;;;;;;;;;;;;;;5053787;28;19954;-72
2023/07/02 13:23:48;;;;;;;;;;;;;;;;;;5053366;28;20042;-71
2023/07/02 13:26:14;;;;;;;;;;;;;;;;;;5053723;28;19965;-72
2023/07/02 13:28:40;;;;;;;;;;;;;;;;;;5053128;28;19956;-71
2023/07/02 13:31:07;;;;;;;;;;;;;;;;;;5053087;28;19958;-72
2023/07/02 13:33:33;;;;;;;;;;;;;;;;;;5054833;28;20501;-72
2023/07/02 13:35:59;;;;;;;;;;;;;;;;;;5056883;28;20025;-72
2023/07/02 13:38:25;;;;;;;;;;;;;;;;;;5056833;28;19955;-71
2023/07/02 13:40:51;;;;;;;;;;;;;;;;;;5056784;28;20327;-71
2023/07/02 13:43:17;;;;;;;;;;;;;;;;;;5057178;28;19990;-72
2023/07/02 13:45:43;;;;;;;;;;;;;;;;;;5056712;28;20308;-73
2023/07/02 13:48:09;;;;;;;;;;;;;;;;;;5057003;28;19993;-71
2023/07/02 13:50:36;;;;;;;;;;;;;;;;;;5056632;28;20341;-72
2023/07/02 13:53:02;;;;;;;;;;;;;;;;;;5055036;28;19959;-72
2023/07/02 13:55:28;;;;;;;;;;;;;;;;;;5056469;28;19955;-72
2023/07/02 13:57:55;;;;;;;;;;;;;;;;;;5056467;28;19960;-72
2023/07/02 14:00:21;;;;;;;;;;;;;;;;;;5055176;28;20057;-71
2023/07/02 14:02:47;;;;;;;;;;;;;;;;;;5056296;28;20098;-71
2023/07/02 14:05:13;;;;;;;;;;;;;;;;;;5056352;28;19962;-72
2023/07/02 14:07:39;;;;;;;;;;;;;;;;;;5056574;28;19955;-71
2023/07/02 14:10:05;;;;;;;;;;;;;;;;;;5056292;28;20426;-72
2023/07/02 14:12:31;;;;;;;;;;;;;;;;;;5056479;28;19956;-71
2023/07/02 14:14:57;;;;;;;;;;;;;;;;;;5056137;28;20395;-72
2023/07/02 14:17:23;;;;;;;;;;;;;;;;;;5056084;28;19982;-73
2023/07/02 14:19:49;;;;;;;;;;;;;;;;;;5056325;28;20005;-73
2023/07/02 14:22:15;;;;;;;;;;;;;;;;;;5055992;28;19954;-71
2023/07/02 14:24:41;;;;;;;;;;;;;;;;;;5055968;28;20006;-71
2023/07/02 14:27:06;;;;;;;;;;;;;;;;;;5056478;28;20460;-72
2023/07/02 14:29:32;;;;;;;;;;;;;;;;;;5055871;28;20408;-71
2023/07/02 14:31:58;;;;;;;;;;;;;;;;;;5055805;28;19959;-72
2023/07/02 14:34:24;;;;;;;;;;;;;;;;;;5055716;28;20020;-71
2023/07/02 14:36:50;;;;;;;;;;;;;;;;;;5056010;28;19954;-71
2023/07/02 14:39:16;;;;;;;;;;;;;;;;;;5056013;28;19955;-72
2023/07/02 14:41:42;;;;;;;;;;;;;;;;;;5055986;28;20379;-72
2023/07/02 14:44:08;;;;;;;;;;;;;;;;;;5055509;28;19990;-72
2023/07/02 14:46:34;;;;;;;;;;;;;;;;;;5055631;28;20423;-72
2023/07/02 14:49:00;;;;;;;;;;;;;;;;;;5056092;28;19966;-72
2023/07/02 14:51:26;;;;;;;;;;;;;;;;;;5055424;28;19962;-72
2023/07/02 14:53:51;;;;;;;;;;;;;;;;;;5055727;28;19954;-72
2023/07/02 14:56:18;;;;;;;;;;;;;;;;;;5055609;28;20429;-71
2023/07/02 14:58:44;;;;;;;;;;;;;;;;;;5055331;28;19958;-73
2023/07/02 15:01:10;;;;;;;;;;;;;;;;;;5055215;28;20535;-71
2023/07/02 15:03:36;;;;;;;;;;;;;;;;;;5055112;28;19981;-71
2023/07/02 15:06:01;;;;;;;;;;;;;;;;;;5055763;28;20403;-72
2023/07/02 15:08:28;;;;;;;;;;;;;;;;;;5055157;28;19959;-73
2023/07/02 15:10:54;;;;;;;;;;;;;;;;;;5055634;28;20005;-72
2023/07/02 15:13:21;;;;;;;;;;;;;;;;;;5055044;28;19963;-71
2023/07/02 15:15:47;;;;;;;;;;;;;;;;;;5053773;28;20046;-72
2023/07/02 15:18:13;;;;;;;;;;;;;;;;;;5055211;28;20005;-73
2023/07/02 15:20:39;;;;;;;;;;;;;;;;;;5055171;28;19958;-72
2023/07/02 15:23:05;;;;;;;;;;;;;;;;;;5055080;28;20426;-71
2023/07/02 15:25:31;;;;;;;;;;;;;;;;;;5054765;28;19955;-72
2023/07/02 15:27:57;;;;;;;;;;;;;;;;;;5055078;28;19994;-71
2023/07/02 15:30:23;;;;;;;;;;;;;;;;;;5054661;28;19955;-72
2023/07/02 15:32:48;;;;;;;;;;;;;;;;;;5054679;28;19955;-72
2023/07/02 15:35:14;;;;;;;;;;;;;;;;;;5054578;28;20025;-72
2023/07/02 15:37:41;;;;;;;;;;;;;;;;;;5054831;28;19954;-71
2023/07/02 15:40:07;;;;;;;;;;;;;;;;;;5054794;28;20002;-72
2023/07/02 15:42:36;;;;;;;;;;;;;;;;;;5054636;28;20029;-72
2023/07/02 15:45:02;;;;;;;;;;;;;;;;;;5055082;28;20000;-72
2023/07/02 15:47:28;;;;;;;;;;;;;;;;;;5054382;28;19954;-72
2023/07/02 15:49:54;;;;;;;;;;;;;;;;;;5054881;28;20426;-71
2023/07/02 15:52:20;;;;;;;;;;;;;;;;;;5054536;28;20068;-72
2023/07/02 15:54:46;;;;;;;;;;;;;;;;;;5054081;28;19995;-72
2023/07/02 15:57:12;;;;;;;;;;;;;;;;;;5054197;28;20008;-72
2023/07/02 15:59:38;;;;;;;;;;;;;;;;;;5054253;28;19954;-72
2023/07/02 16:02:04;;;;;;;;;;;;;;;;;;5052643;28;20327;-71
2023/07/02 16:04:30;;;;;;;;;;;;;;;;;;5054581;28;19981;-71
2023/07/02 16:06:56;;;;;;;;;;;;;;;;;;5054364;28;19954;-71
2023/07/02 16:09:22;;;;;;;;;;;;;;;;;;5054049;28;19959;-72
2023/07/02 16:11:48;;;;;;;;;;;;;;;;;;5054001;28;20008;-71
2023/07/02 16:14:14;;;;;;;;;;;;;;;;;;5054250;28;20024;-71
2023/07/02 16:16:40;;;;;;;;;;;;;;;;;;5054164;28;19952;-72
2023/07/02 16:19:06;;;;;;;;;;;;;;;;;;5054426;28;20366;-73
2023/07/02 16:21:33;;;;;;;;;;;;;;;;;;5053839;28;19956;-71
2023/07/02 16:23:59;;;;;;;;;;;;;;;;;;5054032;28;20435;-71
2023/07/02 16:26:25;;;;;;;;;;;;;;;;;;5054106;28;19955;-71
2023/07/02 16:28:51;;;;;;;;;;;;;;;;;;5053776;28;19955;-72
2023/07/02 16:31:17;;;;;;;;;;;;;;;;;;5054240;28;20288;-72
2023/07/02 16:33:43;;;;;;;;;;;;;;;;;;5053948;28;20072;-72
2023/07/02 16:36:09;;;;;;;;;;;;;;;;;;5053593;28;20005;-73